createdAt,value
2023-02-25T00:01:15.331Z,4.00
2023-02-25T00:03:44.925Z,4.00
2023-02-25T00:06:14.512Z,4.00
2023-02-25T00:08:45.388Z,4.10
2023-02-25T00:11:14.922Z,4.10
2023-02-25T00:13:44.469Z,4.10
2023-02-25T00:16:13.866Z,4.00
2023-02-25T00:18:44.428Z,4.00
2023-02-25T00:21:15.951Z,4.00
2023-02-25T00:23:45.435Z,4.00
2023-02-25T00:26:14.286Z,4.00
2023-02-25T00:28:42.949Z,4.00
2023-02-25T00:31:14.736Z,4.00
2023-02-25T00:33:43.211Z,4.00
2023-02-25T00:36:18.852Z,4.00
2023-02-25T00:38:48.491Z,4.00
2023-02-25T00:41:19.426Z,4.00
2023-02-25T00:43:51.870Z,4.10
2023-02-25T00:46:20.653Z,4.00
2023-02-25T00:48:49.197Z,4.00
2023-02-25T00:51:21.244Z,4.00
2023-02-25T00:53:49.471Z,4.00
2023-02-25T00:56:20.184Z,4.00
2023-02-25T00:58:50.532Z,4.00
2023-02-25T01:01:21.638Z,4.00
2023-02-25T01:03:51.937Z,4.00
2023-02-25T01:06:22.027Z,3.90
2023-02-25T01:08:50.535Z,3.90
2023-02-25T01:11:21.113Z,3.90
2023-02-25T01:13:50.756Z,3.90
2023-02-25T01:16:21.761Z,3.80
2023-02-25T01:18:53.168Z,3.80
2023-02-25T01:21:27.192Z,3.80
2023-02-25T01:23:58.894Z,3.80
2023-02-25T01:26:27.535Z,3.80
2023-02-25T01:28:55.821Z,3.80
2023-02-25T01:31:25.051Z,3.80
2023-02-25T01:33:53.250Z,3.80
2023-02-25T01:36:21.570Z,3.80
2023-02-25T01:38:51.206Z,3.70
2023-02-25T01:41:19.775Z,3.80
2023-02-25T01:44:07.119Z,3.80
2023-02-25T01:46:35.677Z,3.70
2023-02-25T01:49:06.249Z,3.70
2023-02-25T01:51:34.997Z,3.70
2023-02-25T01:54:07.269Z,3.70
2023-02-25T01:56:37.804Z,3.70
2023-02-25T01:59:06.255Z,3.60
2023-02-25T02:01:37.727Z,3.60
2023-02-25T02:04:08.349Z,3.60
2023-02-25T02:06:40.404Z,3.50
2023-02-25T02:09:14.368Z,3.50
2023-02-25T02:11:43.089Z,3.50
2023-02-25T02:14:15.570Z,3.40
2023-02-25T02:17:10.007Z,3.40
2023-02-25T02:19:50.347Z,3.30
2023-02-25T02:22:24.197Z,3.20
2023-02-25T02:25:29.701Z,3.20
2023-02-25T02:28:32.560Z,3.20
2023-02-25T02:31:30.450Z,3.20
2023-02-25T02:34:10.350Z,3.20
2023-02-25T02:36:47.585Z,3.30
2023-02-25T02:39:26.952Z,3.30
2023-02-25T02:42:02.292Z,3.30
2023-02-25T02:44:38.917Z,3.30
2023-02-25T02:47:12.274Z,3.30
2023-02-25T02:49:49.880Z,3.30
2023-02-25T02:52:26.084Z,3.30
2023-02-25T02:55:01.910Z,3.30
2023-02-25T02:58:09.802Z,3.20
2023-02-25T03:00:42.129Z,3.20
2023-02-25T03:03:14.629Z,3.20
2023-02-25T03:05:45.719Z,3.20
2023-02-25T03:08:18.581Z,3.20
2023-02-25T03:10:48.136Z,3.10
2023-02-25T03:13:16.922Z,3.10
2023-02-25T03:15:45.776Z,3.10
2023-02-25T03:18:22.890Z,3.10
2023-02-25T03:20:53.364Z,3.10
2023-02-25T03:23:28.065Z,3.10
2023-02-25T03:26:02.422Z,3.10
2023-02-25T03:28:33.654Z,3.10
2023-02-25T03:31:07.249Z,3.10
2023-02-25T03:33:41.774Z,3.10
2023-02-25T03:36:14.036Z,3.10
2023-02-25T03:38:46.974Z,3.10
2023-02-25T03:41:17.617Z,3.00
2023-02-25T03:43:50.137Z,3.10
2023-02-25T03:46:21.135Z,3.10
2023-02-25T03:48:54.446Z,3.00
2023-02-25T03:51:28.181Z,3.00
2023-02-25T03:53:56.689Z,3.00
2023-02-25T03:56:30.349Z,2.90
2023-02-25T03:58:58.512Z,2.90
2023-02-25T04:01:31.217Z,2.90
2023-02-25T04:04:00.643Z,2.90
2023-02-25T04:06:28.798Z,2.90
2023-02-25T04:08:56.850Z,2.90
2023-02-25T04:11:24.933Z,2.80
2023-02-25T04:13:53.558Z,2.90
2023-02-25T04:16:22.561Z,2.90
2023-02-25T04:18:51.351Z,2.90
2023-02-25T04:21:30.951Z,2.90
2023-02-25T04:23:59.901Z,2.90
2023-02-25T04:26:28.290Z,2.90
2023-02-25T04:28:56.334Z,2.90
2023-02-25T04:31:24.641Z,2.90
2023-02-25T04:33:52.795Z,2.90
2023-02-25T04:36:26.162Z,2.90
2023-02-25T04:38:56.641Z,3.00
2023-02-25T04:41:25.660Z,3.00
2023-02-25T04:43:53.690Z,3.00
2023-02-25T04:46:22.238Z,3.00
2023-02-25T04:48:50.458Z,3.00
2023-02-25T04:51:18.588Z,3.00
2023-02-25T04:53:47.692Z,2.90
2023-02-25T04:56:17.381Z,2.90
2023-02-25T04:58:46.199Z,2.90
2023-02-25T05:01:14.393Z,2.90
2023-02-25T05:03:42.606Z,2.90
2023-02-25T05:06:10.971Z,2.90
2023-02-25T05:08:39.117Z,2.90
2023-02-25T05:11:07.180Z,2.90
2023-02-25T05:13:36.576Z,2.90
2023-02-25T05:16:06.595Z,2.90
2023-02-25T05:18:37.051Z,2.90
2023-02-25T05:21:06.199Z,2.90
2023-02-25T05:23:34.292Z,2.90
2023-02-25T05:26:03.178Z,2.90
2023-02-25T05:28:31.274Z,2.90
2023-02-25T05:31:00.791Z,2.90
2023-02-25T05:33:28.857Z,2.90
2023-02-25T05:35:56.947Z,2.90
2023-02-25T05:38:25.956Z,2.80
2023-02-25T05:40:54.035Z,2.80
2023-02-25T05:43:22.407Z,2.70
2023-02-25T05:45:54.530Z,2.70
2023-02-25T05:48:24.212Z,2.60
2023-02-25T05:50:53.012Z,2.60
2023-02-25T05:53:21.390Z,2.50
2023-02-25T05:55:50.243Z,2.60
2023-02-25T05:58:18.336Z,2.50
2023-02-25T06:00:46.353Z,2.50
2023-02-25T06:03:14.447Z,2.40
2023-02-25T06:05:45.678Z,2.40
2023-02-25T06:08:16.288Z,2.40
2023-02-25T06:10:44.424Z,2.40
2023-02-25T06:13:13.217Z,2.40
2023-02-25T06:15:42.719Z,2.50
2023-02-25T06:18:11.192Z,2.50
2023-02-25T06:20:39.211Z,2.50
2023-02-25T06:23:08.670Z,2.60
2023-02-25T06:25:36.965Z,2.60
2023-02-25T06:28:05.364Z,2.60
2023-02-25T06:30:33.443Z,2.60
2023-02-25T06:33:01.510Z,2.70
2023-02-25T06:35:29.539Z,2.70
2023-02-25T06:37:58.179Z,2.70
2023-02-25T06:40:29.581Z,2.70
2023-02-25T06:42:57.593Z,2.70
2023-02-25T06:45:25.612Z,2.70
2023-02-25T06:47:53.658Z,2.70
2023-02-25T06:50:21.681Z,2.70
2023-02-25T06:52:49.697Z,2.60
2023-02-25T06:55:17.896Z,2.60
2023-02-25T06:57:47.294Z,2.60
2023-02-25T07:00:16.084Z,2.60
2023-02-25T07:02:44.108Z,2.60
2023-02-25T07:05:12.124Z,2.60
2023-02-25T07:07:40.220Z,2.60
2023-02-25T07:10:10.268Z,2.60
2023-02-25T07:12:38.330Z,2.60
2023-02-25T07:15:09.551Z,2.70
2023-02-25T07:17:38.079Z,2.70
2023-02-25T07:20:06.984Z,2.70
2023-02-25T07:22:34.979Z,2.70
2023-02-25T07:25:03.909Z,2.70
2023-02-25T07:27:31.956Z,2.70
2023-02-25T07:30:01.456Z,2.70
2023-02-25T07:32:30.958Z,2.80
2023-02-25T07:34:59.022Z,2.80
2023-02-25T07:37:27.085Z,2.80
2023-02-25T07:39:55.101Z,2.80
2023-02-25T07:42:23.236Z,2.80
2023-02-25T07:44:51.803Z,2.80
2023-02-25T07:47:19.891Z,2.90
2023-02-25T07:49:49.670Z,2.90
2023-02-25T07:52:17.973Z,2.90
2023-02-25T07:54:46.359Z,2.90
2023-02-25T07:57:14.463Z,2.90
2023-02-25T07:59:42.699Z,2.90
2023-02-25T08:02:12.482Z,2.90
2023-02-25T08:04:40.670Z,3.00
2023-02-25T08:07:10.065Z,3.00
2023-02-25T08:09:38.319Z,3.00
2023-02-25T08:12:06.673Z,3.00
2023-02-25T08:14:34.686Z,3.00
2023-02-25T08:17:02.818Z,2.90
2023-02-25T08:19:30.887Z,2.90
2023-02-25T08:22:00.235Z,3.00
2023-02-25T08:24:29.641Z,2.90
2023-02-25T08:26:57.670Z,2.90
2023-02-25T08:29:25.995Z,2.90
2023-02-25T08:31:54.245Z,2.90
2023-02-25T08:34:22.372Z,2.90
2023-02-25T08:36:50.402Z,2.90
2023-02-25T08:39:18.449Z,2.90
2023-02-25T08:41:48.162Z,2.90
2023-02-25T08:44:16.218Z,2.80
2023-02-25T08:46:44.402Z,2.90
2023-02-25T08:49:13.458Z,2.90
2023-02-25T08:51:41.535Z,2.90
2023-02-25T08:54:12.920Z,2.90
2023-02-25T08:56:44.887Z,2.90
2023-02-25T08:59:17.494Z,2.90
2023-02-25T09:01:45.919Z,2.90
2023-02-25T09:04:15.107Z,2.90
2023-02-25T09:06:43.615Z,2.90
2023-02-25T09:09:13.322Z,2.90
2023-02-25T09:11:41.813Z,2.90
2023-02-25T09:14:10.718Z,2.90
2023-02-25T09:16:40.126Z,2.90
2023-02-25T09:19:10.636Z,3.00
2023-02-25T09:21:40.339Z,3.00
2023-02-25T09:24:09.587Z,2.90
2023-02-25T09:26:37.682Z,3.00
2023-02-25T09:29:07.824Z,3.00
2023-02-25T09:31:37.467Z,3.00
2023-02-25T09:34:10.572Z,3.10
2023-02-25T09:36:39.472Z,3.10
2023-02-25T09:39:10.225Z,3.20
2023-02-25T09:41:45.166Z,3.10
2023-02-25T09:44:16.331Z,3.20
2023-02-25T09:46:50.533Z,3.20
2023-02-25T09:49:28.395Z,3.20
2023-02-25T09:52:02.022Z,3.20
2023-02-25T09:54:35.932Z,3.30
2023-02-25T09:57:07.324Z,3.30
2023-02-25T09:59:35.686Z,3.30
2023-02-25T10:02:17.374Z,3.40
2023-02-25T10:04:56.486Z,3.50
2023-02-25T10:07:35.265Z,3.70
2023-02-25T10:10:08.634Z,4.00
2023-02-25T10:12:42.869Z,4.20
2023-02-25T10:15:32.552Z,4.50
2023-02-25T10:18:23.605Z,4.60
2023-02-25T10:21:02.245Z,4.50
2023-02-25T10:23:44.818Z,4.30
2023-02-25T10:26:17.908Z,4.40
2023-02-25T10:28:48.401Z,4.40
2023-02-25T10:31:19.359Z,4.00
2023-02-25T10:33:49.822Z,3.80
2023-02-25T10:36:22.049Z,3.60
2023-02-25T10:38:52.077Z,3.60
2023-02-25T10:41:22.634Z,3.60
2023-02-25T10:43:52.088Z,3.50
2023-02-25T10:46:24.793Z,3.60
2023-02-25T10:48:58.545Z,3.60
2023-02-25T10:51:29.698Z,3.60
2023-02-25T10:54:06.466Z,3.70
2023-02-25T10:56:40.213Z,3.80
2023-02-25T10:59:23.940Z,3.80
2023-02-25T11:01:52.509Z,3.80
2023-02-25T11:04:24.053Z,3.70
2023-02-25T11:06:53.533Z,3.70
2023-02-25T11:09:38.593Z,3.80
2023-02-25T11:12:19.976Z,4.00
2023-02-25T11:14:48.171Z,3.90
2023-02-25T11:17:20.316Z,3.80
2023-02-25T11:19:51.048Z,3.80
2023-02-25T11:22:22.956Z,3.80
2023-02-25T11:25:00.573Z,3.80
2023-02-25T11:27:39.243Z,3.80
2023-02-25T11:30:16.826Z,3.90
2023-02-25T11:32:47.029Z,3.70
2023-02-25T11:35:20.911Z,3.70
2023-02-25T11:37:50.308Z,3.90
2023-02-25T11:40:24.568Z,4.00
2023-02-25T11:43:04.663Z,4.10
2023-02-25T11:45:35.541Z,4.50
2023-02-25T11:48:05.571Z,4.80
2023-02-25T11:50:38.932Z,4.90
2023-02-25T11:53:16.165Z,5.00
2023-02-25T11:55:58.962Z,4.90
2023-02-25T11:58:38.667Z,4.60
2023-02-25T12:01:16.927Z,4.30
2023-02-25T12:04:03.397Z,4.40
2023-02-25T12:06:48.796Z,4.60
2023-02-25T12:09:58.108Z,4.80
2023-02-25T12:12:59.508Z,4.90
2023-02-25T12:15:58.201Z,5.10
2023-02-25T12:18:55.165Z,4.90
2023-02-25T12:21:48.676Z,4.60
2023-02-25T12:24:50.916Z,4.60
2023-02-25T12:27:58.492Z,4.70
2023-02-25T12:30:47.221Z,4.80
2023-02-25T12:33:25.876Z,4.90
2023-02-25T12:36:20.026Z,4.80
2023-02-25T12:39:11.961Z,4.80
2023-02-25T12:41:47.114Z,4.60
2023-02-25T12:44:40.157Z,4.50
2023-02-25T12:47:24.323Z,4.50
2023-02-25T12:50:24.719Z,4.70
2023-02-25T12:53:06.272Z,4.80
2023-02-25T12:56:01.402Z,4.70
2023-02-25T12:58:41.892Z,4.60
2023-02-25T13:01:34.966Z,4.60
2023-02-25T13:04:24.268Z,4.50
2023-02-25T13:07:24.599Z,4.60
2023-02-25T13:10:04.760Z,4.80
2023-02-25T13:12:59.753Z,4.90
2023-02-25T13:15:33.956Z,5.00
2023-02-25T13:18:16.765Z,4.90
2023-02-25T13:21:02.761Z,4.80
2023-02-25T13:23:39.845Z,4.70
2023-02-25T13:26:32.408Z,4.60
2023-02-25T13:29:15.993Z,4.60
2023-02-25T13:31:52.934Z,4.60
2023-02-25T13:34:34.573Z,4.60
2023-02-25T13:37:21.766Z,4.70
2023-02-25T13:40:03.575Z,4.70
2023-02-25T13:42:51.741Z,4.70
2023-02-25T13:45:47.690Z,4.70
2023-02-25T13:48:52.770Z,4.70
2023-02-25T13:51:37.522Z,4.70
2023-02-25T13:54:30.986Z,4.80
2023-02-25T13:57:11.354Z,4.80
2023-02-25T13:59:59.111Z,4.70
2023-02-25T14:02:45.274Z,4.60
2023-02-25T14:05:28.500Z,4.60
2023-02-25T14:08:10.005Z,4.60
2023-02-25T14:10:47.962Z,4.60
2023-02-25T14:13:39.397Z,4.60
2023-02-25T14:16:21.926Z,4.50
2023-02-25T14:19:03.104Z,4.40
2023-02-25T14:21:59.873Z,4.40
2023-02-25T14:24:36.008Z,4.40
2023-02-25T14:27:21.728Z,4.40
2023-02-25T14:30:02.727Z,4.40
2023-02-25T14:32:44.842Z,4.30
2023-02-25T14:35:26.854Z,4.30
2023-02-25T14:38:05.758Z,4.30
2023-02-25T14:40:42.901Z,4.40
2023-02-25T14:43:30.217Z,4.30
2023-02-25T14:46:03.994Z,4.20
2023-02-25T14:48:40.132Z,4.20
2023-02-25T14:51:45.540Z,4.20
2023-02-25T14:54:49.057Z,4.20
2023-02-25T14:57:57.582Z,4.20
2023-02-25T15:00:59.239Z,4.20
2023-02-25T15:03:44.766Z,4.30
2023-02-25T15:06:32.913Z,4.20
2023-02-25T15:09:19.411Z,4.20
2023-02-25T15:12:10.481Z,4.10
2023-02-25T15:15:06.196Z,4.10
2023-02-25T15:18:13.256Z,4.00
2023-02-25T15:20:44.084Z,4.00
2023-02-25T15:23:13.758Z,4.00
2023-02-25T15:25:48.233Z,4.00
2023-02-25T15:28:38.812Z,3.90
2023-02-25T15:31:28.327Z,3.90
2023-02-25T15:34:32.779Z,3.90
2023-02-25T15:37:37.162Z,3.90
2023-02-25T15:40:50.017Z,3.80
2023-02-25T15:43:43.572Z,3.80
2023-02-25T15:46:36.592Z,3.80
2023-02-25T15:49:11.022Z,3.90
2023-02-25T15:51:45.552Z,3.80
2023-02-25T15:54:47.054Z,3.80
2023-02-25T15:57:37.169Z,3.80
2023-02-25T16:00:30.116Z,3.80
2023-02-25T16:03:01.720Z,3.80
2023-02-25T16:05:36.218Z,3.80
2023-02-25T16:08:14.336Z,3.70
2023-02-25T16:10:48.436Z,3.60
2023-02-25T16:13:22.300Z,3.60
2023-02-25T16:15:57.278Z,3.50
2023-02-25T16:18:32.026Z,3.50
2023-02-25T16:21:04.349Z,3.50
2023-02-25T16:23:33.292Z,3.40
2023-02-25T16:26:13.174Z,3.40
2023-02-25T16:28:49.774Z,3.30
2023-02-25T16:31:21.079Z,3.30
2023-02-25T16:33:54.303Z,3.30
2023-02-25T16:36:31.758Z,3.20
2023-02-25T16:39:03.266Z,3.30
2023-02-25T16:41:38.665Z,3.20
2023-02-25T16:44:08.249Z,3.20
2023-02-25T16:46:39.137Z,3.20
2023-02-25T16:49:12.156Z,3.10
2023-02-25T16:51:42.314Z,3.10
2023-02-25T16:54:15.296Z,3.10
2023-02-25T16:56:47.375Z,3.00
2023-02-25T16:59:21.564Z,3.00
2023-02-25T17:01:55.578Z,3.00
2023-02-25T17:04:26.057Z,3.00
2023-02-25T17:07:13.210Z,2.90
2023-02-25T17:09:46.622Z,2.90
2023-02-25T17:12:20.055Z,2.90
2023-02-25T17:14:50.179Z,2.80
2023-02-25T17:17:23.888Z,2.80
2023-02-25T17:19:52.969Z,2.70
2023-02-25T17:22:23.248Z,2.70
2023-02-25T17:24:53.412Z,2.60
2023-02-25T17:27:24.718Z,2.60
2023-02-25T17:29:53.016Z,2.50
2023-02-25T17:32:24.010Z,2.40
2023-02-25T17:34:55.411Z,2.40
2023-02-25T17:37:25.721Z,2.30
2023-02-25T17:39:54.832Z,2.20
2023-02-25T17:42:35.512Z,2.20
2023-02-25T17:45:07.186Z,2.20
2023-02-25T17:47:38.020Z,2.10
2023-02-25T17:50:22.810Z,2.10
2023-02-25T17:52:51.648Z,2.10
2023-02-25T17:55:26.580Z,2.00
2023-02-25T17:57:59.553Z,2.10
2023-02-25T18:00:31.883Z,2.00
2023-02-25T18:03:18.566Z,2.00
2023-02-25T18:05:52.048Z,2.00
2023-02-25T18:08:22.934Z,2.00
2023-02-25T18:10:57.188Z,2.00
2023-02-25T18:13:33.807Z,2.00
2023-02-25T18:16:29.703Z,1.90
2023-02-25T18:18:59.815Z,1.80
2023-02-25T18:21:28.276Z,1.70
2023-02-25T18:23:56.490Z,1.70
2023-02-25T18:26:26.756Z,1.70
2023-02-25T18:28:58.470Z,1.70
2023-02-25T18:31:26.894Z,1.70
2023-02-25T18:33:55.003Z,1.80
2023-02-25T18:36:25.745Z,1.70
2023-02-25T18:38:55.449Z,1.70
2023-02-25T18:41:24.002Z,1.60
2023-02-25T18:43:54.534Z,1.60
2023-02-25T18:46:24.435Z,1.60
2023-02-25T18:48:52.701Z,1.60
2023-02-25T18:51:20.719Z,1.60
2023-02-25T18:53:48.742Z,1.50
2023-02-25T18:56:18.319Z,1.40
2023-02-25T18:58:46.418Z,1.40
2023-02-25T19:01:21.803Z,1.30
2023-02-25T19:03:52.062Z,1.30
2023-02-25T19:06:20.092Z,1.30
2023-02-25T19:08:48.158Z,1.30
2023-02-25T19:11:21.492Z,1.20
2023-02-25T19:13:49.754Z,1.20
2023-02-25T19:16:19.126Z,1.10
2023-02-25T19:18:48.194Z,1.10
2023-02-25T19:21:20.247Z,1.00
2023-02-25T19:23:51.656Z,1.00
2023-02-25T19:26:20.172Z,1.10
2023-02-25T19:28:48.228Z,1.00
2023-02-25T19:31:17.748Z,1.00
2023-02-25T19:33:46.079Z,1.00
2023-02-25T19:36:14.161Z,1.00
2023-02-25T19:38:43.594Z,1.00
2023-02-25T19:41:13.672Z,0.90
2023-02-25T19:43:41.715Z,0.90
2023-02-25T19:46:10.352Z,0.90
2023-02-25T19:48:38.363Z,0.90
2023-02-25T19:51:07.610Z,0.90
2023-02-25T19:53:36.248Z,0.90
2023-02-25T19:56:07.819Z,0.90
2023-02-25T19:58:35.820Z,0.80
2023-02-25T20:01:05.846Z,0.90
2023-02-25T20:03:33.998Z,0.80
2023-02-25T20:06:06.879Z,0.80
2023-02-25T20:08:36.357Z,0.80
2023-02-25T20:11:09.766Z,0.80
2023-02-25T20:13:38.343Z,0.80
2023-02-25T20:16:09.078Z,0.80
2023-02-25T20:18:37.260Z,0.80
2023-02-25T20:21:06.289Z,0.80
2023-02-25T20:23:34.370Z,0.80
2023-02-25T20:26:08.783Z,0.70
2023-02-25T20:28:37.728Z,0.80
2023-02-25T20:31:07.486Z,0.70
2023-02-25T20:33:36.152Z,0.70
2023-02-25T20:36:17.865Z,0.70
2023-02-25T20:38:57.614Z,0.60
2023-02-25T20:41:28.225Z,0.60
2023-02-25T20:43:56.562Z,0.50
2023-02-25T20:46:28.067Z,0.60
2023-02-25T20:48:57.042Z,0.60
2023-02-25T20:51:25.667Z,0.60
2023-02-25T20:53:54.207Z,0.70
2023-02-25T20:56:24.946Z,0.70
2023-02-25T20:58:55.839Z,0.60
2023-02-25T21:01:24.199Z,0.60
2023-02-25T21:03:52.909Z,0.60
2023-02-25T21:06:24.038Z,0.60
2023-02-25T21:08:52.914Z,0.60
2023-02-25T21:11:22.034Z,0.60
2023-02-25T21:13:51.488Z,0.60
2023-02-25T21:16:23.378Z,0.60
2023-02-25T21:18:52.676Z,0.60
2023-02-25T21:21:22.519Z,0.70
2023-02-25T21:23:52.565Z,0.70
2023-02-25T21:26:20.720Z,0.70
2023-02-25T21:28:48.772Z,0.70
2023-02-25T21:31:18.325Z,0.60
2023-02-25T21:33:47.740Z,0.50
2023-02-25T21:36:15.812Z,0.50
2023-02-25T21:38:43.854Z,0.50
2023-02-25T21:41:14.320Z,0.50
2023-02-25T21:43:43.287Z,0.50
2023-02-25T21:46:13.833Z,0.50
2023-02-25T21:48:42.573Z,0.50
2023-02-25T21:51:18.301Z,0.50
2023-02-25T21:53:46.555Z,0.50
2023-02-25T21:56:16.818Z,0.50
2023-02-25T21:58:45.456Z,0.60
2023-02-25T22:01:15.810Z,0.60
2023-02-25T22:03:44.649Z,0.60
2023-02-25T22:06:13.710Z,0.60
2023-02-25T22:08:45.397Z,0.50
2023-02-25T22:11:14.834Z,0.50
2023-02-25T22:13:43.145Z,0.50
2023-02-25T22:16:14.429Z,0.50
2023-02-25T22:18:42.907Z,0.50
2023-02-25T22:21:13.005Z,0.50
2023-02-25T22:23:44.096Z,0.60
2023-02-25T22:26:13.996Z,0.60
2023-02-25T22:28:43.224Z,0.60
2023-02-25T22:31:12.979Z,0.70
2023-02-25T22:33:41.791Z,0.80
2023-02-25T22:36:10.652Z,0.70
2023-02-25T22:38:40.352Z,0.60
2023-02-25T22:41:13.718Z,0.60
2023-02-25T22:43:41.772Z,0.60
2023-02-25T22:46:11.531Z,0.60
2023-02-25T22:48:40.746Z,0.60
2023-02-25T22:51:10.255Z,0.60
2023-02-25T22:53:39.056Z,0.70
2023-02-25T22:56:10.804Z,0.60
2023-02-25T22:58:40.676Z,0.60
2023-02-25T23:01:09.154Z,0.60
2023-02-25T23:03:38.391Z,0.60
2023-02-25T23:06:07.855Z,0.50
2023-02-25T23:08:36.391Z,0.50
2023-02-25T23:11:15.279Z,0.50
2023-02-25T23:13:47.391Z,0.50
2023-02-25T23:16:16.114Z,0.40
2023-02-25T23:18:44.520Z,0.40
2023-02-25T23:21:18.770Z,0.50
2023-02-25T23:23:47.958Z,0.50
2023-02-25T23:26:19.539Z,0.50
2023-02-25T23:28:48.217Z,0.50
2023-02-25T23:31:21.015Z,0.50
2023-02-25T23:33:49.409Z,0.50
2023-02-25T23:36:17.443Z,0.40
2023-02-25T23:38:45.534Z,0.40
2023-02-25T23:41:13.595Z,0.40
2023-02-25T23:43:42.962Z,0.30
2023-02-25T23:46:11.023Z,0.40
2023-02-25T23:48:39.102Z,0.30
2023-02-25T23:51:08.786Z,0.30
2023-02-25T23:53:37.385Z,0.20
2023-02-25T23:56:06.689Z,0.20
2023-02-25T23:58:35.504Z,0.20
